Time;durP1;ratioP1;P1;durP2;ratioP2;P2;SDS_P1;SDS_P2;PMS_P1;PMS_P2;Temp;Humidity;BMP_temperature;BMP_pressure;BME280_temperature;BME280_humidity;BME280_pressure;Samples;Min_cycle;Max_cycle;Signal;HPM_P1;HPM_P2
2021/09/14 00:00:55;;;;;;;;;;;;;;;;;;5113326;28;19930;-75
2021/09/14 00:03:21;;;;;;;;;;;;;;;;;;5112712;28;20302;-75
2021/09/14 00:05:47;;;;;;;;;;;;;;;;;;5112960;28;19930;-75
2021/09/14 00:08:13;;;;;;;;;;;;;;;;;;5113077;28;19923;-75
2021/09/14 00:10:40;;;;;;;;;;;;;;;;;;5113194;28;19924;-75
2021/09/14 00:13:07;;;;;;;;;;;;;;;;;;5113192;28;19923;-75
2021/09/14 00:15:33;;;;;;;;;;;;;;;;;;5112665;28;20282;-76
2021/09/14 00:17:59;;;;;;;;;;;;;;;;;;5112754;28;19931;-75
2021/09/14 00:20:26;;;;;;;;;;;;;;;;;;5112857;28;19930;-76
2021/09/14 00:22:52;;;;;;;;;;;;;;;;;;5113168;28;19923;-75
2021/09/14 00:25:18;;;;;;;;;;;;;;;;;;5112254;28;19924;-74
2021/09/14 00:27:45;;;;;;;;;;;;;;;;;;5113127;28;19924;-74
2021/09/14 00:30:11;;;;;;;;;;;;;;;;;;5112941;28;19927;-75
2021/09/14 00:32:38;;;;;;;;;;;;;;;;;;5112682;28;19931;-74
2021/09/14 00:35:04;;;;;;;;;;;;;;;;;;5112940;28;19931;-74
2021/09/14 00:37:30;;;;;;;;;;;;;;;;;;5112763;28;19924;-74
2021/09/14 00:39:57;;;;;;;;;;;;;;;;;;5112657;28;19931;-74
2021/09/14 00:42:23;;;;;;;;;;;;;;;;;;5112687;28;19924;-74
2021/09/14 00:44:49;;;;;;;;;;;;;;;;;;5112540;28;19930;-75
2021/09/14 00:47:15;;;;;;;;;;;;;;;;;;5112698;28;19923;-75
2021/09/14 00:49:42;;;;;;;;;;;;;;;;;;5112827;28;19950;-74
2021/09/14 00:52:08;;;;;;;;;;;;;;;;;;5112593;28;19924;-74
2021/09/14 00:54:36;;;;;;;;;;;;;;;;;;5112554;28;19931;-74
2021/09/14 00:57:03;;;;;;;;;;;;;;;;;;5112497;28;19923;-74
2021/09/14 00:59:29;;;;;;;;;;;;;;;;;;5112462;28;19924;-74
2021/09/14 01:01:55;;;;;;;;;;;;;;;;;;5112468;28;19977;-74
2021/09/14 01:04:22;;;;;;;;;;;;;;;;;;5112538;28;19935;-74
2021/09/14 01:06:48;;;;;;;;;;;;;;;;;;5112657;28;19961;-74
2021/09/14 01:09:14;;;;;;;;;;;;;;;;;;5112206;28;20386;-75
2021/09/14 01:11:41;;;;;;;;;;;;;;;;;;5112565;28;19931;-75
2021/09/14 01:14:07;;;;;;;;;;;;;;;;;;5112267;28;19924;-74
2021/09/14 01:16:33;;;;;;;;;;;;;;;;;;5112369;28;19928;-75
2021/09/14 01:19:00;;;;;;;;;;;;;;;;;;5112617;28;19946;-75
2021/09/14 01:21:26;;;;;;;;;;;;;;;;;;5111925;28;19924;-75
2021/09/14 01:23:52;;;;;;;;;;;;;;;;;;5112438;28;19927;-74
2021/09/14 01:26:19;;;;;;;;;;;;;;;;;;5111629;28;20019;-75
2021/09/14 01:28:45;;;;;;;;;;;;;;;;;;5112153;28;20290;-75
2021/09/14 01:31:11;;;;;;;;;;;;;;;;;;5114781;28;19924;-75
2021/09/14 01:33:38;;;;;;;;;;;;;;;;;;5116152;28;19931;-75
2021/09/14 01:36:04;;;;;;;;;;;;;;;;;;5115833;28;20510;-75
2021/09/14 01:38:30;;;;;;;;;;;;;;;;;;5115401;28;19924;-75
2021/09/14 01:40:56;;;;;;;;;;;;;;;;;;5115945;28;19924;-75
2021/09/14 01:43:23;;;;;;;;;;;;;;;;;;5115382;28;19923;-75
2021/09/14 01:45:49;;;;;;;;;;;;;;;;;;5115804;28;19924;-75
2021/09/14 01:48:15;;;;;;;;;;;;;;;;;;5115540;28;19930;-75
2021/09/14 01:50:42;;;;;;;;;;;;;;;;;;5115496;28;19934;-75
2021/09/14 01:53:08;;;;;;;;;;;;;;;;;;5115417;28;20015;-75
2021/09/14 01:55:34;;;;;;;;;;;;;;;;;;5115482;28;19923;-75
2021/09/14 01:58:01;;;;;;;;;;;;;;;;;;5115686;28;19923;-75
2021/09/14 02:00:29;;;;;;;;;;;;;;;;;;5115015;28;19924;-75
2021/09/14 02:06:21;;;;;;;;;;;;;;;;;;5114347;28;19967;-75
2021/09/14 02:33:53;;;;;;;;;;;;;;;;;;5093048;28;20014;-74
2021/09/14 02:58:40;;;;;;;;;;;;;;;;;;5071120;28;20017;-76
2021/09/14 03:01:06;;;;;;;;;;;;;;;;;;5096432;28;19924;-76
2021/09/14 03:03:33;;;;;;;;;;;;;;;;;;5114137;28;19928;-74
2021/09/14 03:05:59;;;;;;;;;;;;;;;;;;5114140;28;19924;-74
2021/09/14 03:08:25;;;;;;;;;;;;;;;;;;5114083;28;19930;-75
2021/09/14 03:10:51;;;;;;;;;;;;;;;;;;5114028;28;20374;-74
2021/09/14 03:13:18;;;;;;;;;;;;;;;;;;5113666;28;19997;-75
2021/09/14 03:15:44;;;;;;;;;;;;;;;;;;5114122;28;19930;-75
2021/09/14 03:18:10;;;;;;;;;;;;;;;;;;5113755;28;19931;-75
2021/09/14 03:20:37;;;;;;;;;;;;;;;;;;5113782;28;19930;-75
2021/09/14 03:23:03;;;;;;;;;;;;;;;;;;5114056;28;19928;-75
2021/09/14 03:25:29;;;;;;;;;;;;;;;;;;5113152;28;20374;-75
2021/09/14 03:27:56;;;;;;;;;;;;;;;;;;5113483;28;19924;-75
2021/09/14 03:30:22;;;;;;;;;;;;;;;;;;5113649;28;19923;-75
2021/09/14 03:32:48;;;;;;;;;;;;;;;;;;5113822;28;20325;-75
2021/09/14 03:35:14;;;;;;;;;;;;;;;;;;5113261;28;20401;-75
2021/09/14 03:37:41;;;;;;;;;;;;;;;;;;5113449;28;19923;-75
2021/09/14 03:40:07;;;;;;;;;;;;;;;;;;5113615;28;19930;-75
2021/09/14 03:42:33;;;;;;;;;;;;;;;;;;5113343;28;19950;-74
2021/09/14 03:45:00;;;;;;;;;;;;;;;;;;5114416;28;20370;-74
2021/09/14 03:47:26;;;;;;;;;;;;;;;;;;5112951;28;19930;-74
2021/09/14 03:49:52;;;;;;;;;;;;;;;;;;5113495;28;19924;-73
2021/09/14 03:52:19;;;;;;;;;;;;;;;;;;5112891;28;19930;-76
2021/09/14 03:54:45;;;;;;;;;;;;;;;;;;5113133;28;20400;-75
2021/09/14 03:57:11;;;;;;;;;;;;;;;;;;5112921;28;19924;-75
2021/09/14 03:59:40;;;;;;;;;;;;;;;;;;5113363;28;19930;-73
2021/09/14 04:02:13;;;;;;;;;;;;;;;;;;5112976;28;20335;-74
2021/09/14 04:04:47;;;;;;;;;;;;;;;;;;5113438;28;19930;-73
2021/09/14 04:07:23;;;;;;;;;;;;;;;;;;5112750;28;19927;-73
2021/09/14 04:09:50;;;;;;;;;;;;;;;;;;5113231;28;19947;-74
2021/09/14 04:12:16;;;;;;;;;;;;;;;;;;5112651;28;20393;-73
2021/09/14 04:14:42;;;;;;;;;;;;;;;;;;5113304;28;20026;-73
2021/09/14 04:17:10;;;;;;;;;;;;;;;;;;5112902;28;19923;-74
2021/09/14 04:19:36;;;;;;;;;;;;;;;;;;5112763;28;19949;-74
2021/09/14 04:22:02;;;;;;;;;;;;;;;;;;5113229;28;19924;-74
2021/09/14 04:24:29;;;;;;;;;;;;;;;;;;5112507;28;20294;-75
2021/09/14 04:26:55;;;;;;;;;;;;;;;;;;5112549;28;19924;-75
2021/09/14 04:29:21;;;;;;;;;;;;;;;;;;5112542;28;19924;-73
2021/09/14 04:31:47;;;;;;;;;;;;;;;;;;5113404;28;19930;-74
2021/09/14 04:34:14;;;;;;;;;;;;;;;;;;5112340;28;20404;-74
2021/09/14 04:36:40;;;;;;;;;;;;;;;;;;5113010;28;19924;-74
2021/09/14 04:39:06;;;;;;;;;;;;;;;;;;5112537;28;20378;-75
2021/09/14 04:41:33;;;;;;;;;;;;;;;;;;5112139;28;19931;-73
2021/09/14 04:43:59;;;;;;;;;;;;;;;;;;5111818;28;20289;-76
2021/09/14 04:46:25;;;;;;;;;;;;;;;;;;5112089;28;19923;-73
2021/09/14 04:48:51;;;;;;;;;;;;;;;;;;5112882;28;19923;-73
2021/09/14 04:51:18;;;;;;;;;;;;;;;;;;5112376;28;19931;-73
2021/09/14 04:53:44;;;;;;;;;;;;;;;;;;5112385;28;19927;-74
2021/09/14 04:56:10;;;;;;;;;;;;;;;;;;5112516;28;20382;-74
2021/09/14 04:58:39;;;;;;;;;;;;;;;;;;5112532;28;19930;-74
2021/09/14 05:01:05;;;;;;;;;;;;;;;;;;5112391;28;19931;-76
2021/09/14 05:03:32;;;;;;;;;;;;;;;;;;5112535;28;19923;-72
2021/09/14 05:05:58;;;;;;;;;;;;;;;;;;5115185;28;19924;-72
2021/09/14 05:08:24;;;;;;;;;;;;;;;;;;5116104;28;19935;-74
2021/09/14 05:10:51;;;;;;;;;;;;;;;;;;5116620;28;19923;-74
2021/09/14 05:13:18;;;;;;;;;;;;;;;;;;5116281;28;19923;-74
2021/09/14 05:15:44;;;;;;;;;;;;;;;;;;5116162;28;19928;-74
2021/09/14 05:18:12;;;;;;;;;;;;;;;;;;5116410;28;19924;-74
2021/09/14 05:20:38;;;;;;;;;;;;;;;;;;5116148;28;20340;-74
2021/09/14 05:23:12;;;;;;;;;;;;;;;;;;5115896;28;19924;-74
2021/09/14 05:25:39;;;;;;;;;;;;;;;;;;5115833;28;20015;-74
2021/09/14 05:28:05;;;;;;;;;;;;;;;;;;5115856;28;20404;-73
2021/09/14 05:30:31;;;;;;;;;;;;;;;;;;5115677;28;19942;-74
2021/09/14 05:32:57;;;;;;;;;;;;;;;;;;5116140;28;19923;-73
2021/09/14 05:35:24;;;;;;;;;;;;;;;;;;5115578;28;19934;-74
2021/09/14 05:37:50;;;;;;;;;;;;;;;;;;5116068;28;19923;-76
2021/09/14 05:40:16;;;;;;;;;;;;;;;;;;5115844;28;19924;-75
2021/09/14 05:42:43;;;;;;;;;;;;;;;;;;5115590;28;19928;-75
2021/09/14 05:45:09;;;;;;;;;;;;;;;;;;5115929;28;19924;-76
2021/09/14 05:47:35;;;;;;;;;;;;;;;;;;5115328;28;20309;-75
2021/09/14 05:50:02;;;;;;;;;;;;;;;;;;5115511;28;19924;-73
2021/09/14 05:52:28;;;;;;;;;;;;;;;;;;5115569;28;19969;-73
2021/09/14 05:54:55;;;;;;;;;;;;;;;;;;5115385;28;20335;-72
2021/09/14 05:57:21;;;;;;;;;;;;;;;;;;5115190;28;19924;-72
2021/09/14 05:59:47;;;;;;;;;;;;;;;;;;5115501;28;19924;-72
2021/09/14 06:02:14;;;;;;;;;;;;;;;;;;5115105;28;20404;-72
2021/09/14 06:04:40;;;;;;;;;;;;;;;;;;5115280;28;19924;-72
2021/09/14 06:07:06;;;;;;;;;;;;;;;;;;5115491;28;19923;-72
2021/09/14 06:09:32;;;;;;;;;;;;;;;;;;5115163;28;19923;-72
2021/09/14 06:11:59;;;;;;;;;;;;;;;;;;5115154;28;19924;-72
2021/09/14 06:14:25;;;;;;;;;;;;;;;;;;5115434;28;19923;-72
2021/09/14 06:16:51;;;;;;;;;;;;;;;;;;5115079;28;19946;-72
2021/09/14 06:19:18;;;;;;;;;;;;;;;;;;5114796;28;19924;-71
2021/09/14 06:21:45;;;;;;;;;;;;;;;;;;5114949;28;20369;-71
2021/09/14 06:24:11;;;;;;;;;;;;;;;;;;5114553;28;19930;-72
2021/09/14 06:26:37;;;;;;;;;;;;;;;;;;5114664;28;19928;-71
2021/09/14 06:29:04;;;;;;;;;;;;;;;;;;5115120;28;19946;-71
2021/09/14 06:31:30;;;;;;;;;;;;;;;;;;5114546;28;19931;-74
2021/09/14 06:33:56;;;;;;;;;;;;;;;;;;5114706;28;19930;-71
2021/09/14 06:36:23;;;;;;;;;;;;;;;;;;5114642;28;19947;-72
2021/09/14 06:38:49;;;;;;;;;;;;;;;;;;5114475;28;20381;-73
2021/09/14 06:41:15;;;;;;;;;;;;;;;;;;5114353;28;19923;-74
2021/09/14 06:43:42;;;;;;;;;;;;;;;;;;5114823;28;19924;-74
2021/09/14 06:46:08;;;;;;;;;;;;;;;;;;5114249;28;20377;-73
2021/09/14 06:48:34;;;;;;;;;;;;;;;;;;5114429;28;19927;-73
2021/09/14 06:51:00;;;;;;;;;;;;;;;;;;5114581;28;19924;-74
2021/09/14 06:53:29;;;;;;;;;;;;;;;;;;5114082;28;19924;-74
2021/09/14 06:55:56;;;;;;;;;;;;;;;;;;5114293;28;19924;-72
2021/09/14 06:58:22;;;;;;;;;;;;;;;;;;5114122;28;19924;-73
2021/09/14 07:00:48;;;;;;;;;;;;;;;;;;5114166;28;19924;-73
2021/09/14 07:03:15;;;;;;;;;;;;;;;;;;5113934;28;19928;-73
2021/09/14 07:05:41;;;;;;;;;;;;;;;;;;5114643;28;19930;-73
2021/09/14 07:08:07;;;;;;;;;;;;;;;;;;5113864;28;20412;-73
2021/09/14 07:10:34;;;;;;;;;;;;;;;;;;5113996;28;19924;-73
2021/09/14 07:13:00;;;;;;;;;;;;;;;;;;5113998;28;20305;-73
2021/09/14 07:15:26;;;;;;;;;;;;;;;;;;5113689;28;19923;-73
2021/09/14 07:17:53;;;;;;;;;;;;;;;;;;5114093;28;19924;-73
2021/09/14 07:20:19;;;;;;;;;;;;;;;;;;5113803;28;20018;-73
2021/09/14 07:22:45;;;;;;;;;;;;;;;;;;5113675;28;19928;-73
2021/09/14 07:25:12;;;;;;;;;;;;;;;;;;5113245;28;19930;-73
2021/09/14 07:27:38;;;;;;;;;;;;;;;;;;5112879;28;19959;-73
2021/09/14 07:30:04;;;;;;;;;;;;;;;;;;5113895;28;19924;-73
2021/09/14 07:32:30;;;;;;;;;;;;;;;;;;5113339;28;19934;-73
2021/09/14 07:34:57;;;;;;;;;;;;;;;;;;5113543;28;19930;-72
2021/09/14 07:37:23;;;;;;;;;;;;;;;;;;5113492;28;19931;-72
2021/09/14 07:39:49;;;;;;;;;;;;;;;;;;5113815;28;20037;-72
2021/09/14 07:42:16;;;;;;;;;;;;;;;;;;5113209;28;19928;-72
2021/09/14 07:44:42;;;;;;;;;;;;;;;;;;5113618;28;19924;-72
2021/09/14 07:47:08;;;;;;;;;;;;;;;;;;5113281;28;20278;-73
2021/09/14 07:49:35;;;;;;;;;;;;;;;;;;5113041;28;19930;-72
2021/09/14 07:52:01;;;;;;;;;;;;;;;;;;5113512;28;19930;-72
2021/09/14 07:54:27;;;;;;;;;;;;;;;;;;5113284;28;19987;-72
2021/09/14 07:56:53;;;;;;;;;;;;;;;;;;5113014;28;19931;-72
2021/09/14 07:59:20;;;;;;;;;;;;;;;;;;5112948;28;19931;-72
2021/09/14 08:01:46;;;;;;;;;;;;;;;;;;5113079;28;19928;-72
2021/09/14 08:04:12;;;;;;;;;;;;;;;;;;5113048;28;19924;-72
2021/09/14 08:06:39;;;;;;;;;;;;;;;;;;5113204;28;19924;-72
2021/09/14 08:09:05;;;;;;;;;;;;;;;;;;5112952;28;20015;-72
2021/09/14 08:11:31;;;;;;;;;;;;;;;;;;5113047;28;19935;-72
2021/09/14 08:13:58;;;;;;;;;;;;;;;;;;5113142;28;19924;-72
2021/09/14 08:16:24;;;;;;;;;;;;;;;;;;5112632;28;19924;-74
2021/09/14 08:18:50;;;;;;;;;;;;;;;;;;5112737;28;19998;-72
2021/09/14 08:21:16;;;;;;;;;;;;;;;;;;5112906;28;19928;-72
2021/09/14 08:23:43;;;;;;;;;;;;;;;;;;5112757;28;19927;-72
2021/09/14 08:26:09;;;;;;;;;;;;;;;;;;5112582;28;19924;-72
2021/09/14 08:28:35;;;;;;;;;;;;;;;;;;5113088;28;20307;-72
2021/09/14 08:31:02;;;;;;;;;;;;;;;;;;5112708;28;19924;-72
2021/09/14 08:33:28;;;;;;;;;;;;;;;;;;5112796;28;19923;-73
2021/09/14 08:35:54;;;;;;;;;;;;;;;;;;5113050;28;19953;-73
2021/09/14 08:38:20;;;;;;;;;;;;;;;;;;5112530;28;19931;-73
2021/09/14 08:40:47;;;;;;;;;;;;;;;;;;5116641;28;19928;-72
2021/09/14 08:43:13;;;;;;;;;;;;;;;;;;5116897;28;19923;-72
2021/09/14 08:45:39;;;;;;;;;;;;;;;;;;5117082;28;19930;-73
2021/09/14 08:48:06;;;;;;;;;;;;;;;;;;5116584;28;19923;-72
2021/09/14 08:50:32;;;;;;;;;;;;;;;;;;5116756;28;19924;-74
2021/09/14 08:52:58;;;;;;;;;;;;;;;;;;5116660;28;20343;-72
2021/09/14 08:55:25;;;;;;;;;;;;;;;;;;5116322;28;19924;-72
2021/09/14 08:57:51;;;;;;;;;;;;;;;;;;5116572;28;19930;-72
2021/09/14 09:00:17;;;;;;;;;;;;;;;;;;5116355;28;19932;-73
2021/09/14 09:02:44;;;;;;;;;;;;;;;;;;5116517;28;19923;-73
2021/09/14 09:05:10;;;;;;;;;;;;;;;;;;5116402;28;19924;-72
2021/09/14 09:07:36;;;;;;;;;;;;;;;;;;5116608;28;19923;-72
2021/09/14 09:10:03;;;;;;;;;;;;;;;;;;5116283;28;19938;-72
2021/09/14 09:12:29;;;;;;;;;;;;;;;;;;5116257;28;19924;-73
2021/09/14 09:14:56;;;;;;;;;;;;;;;;;;5116107;28;19931;-73
2021/09/14 09:17:22;;;;;;;;;;;;;;;;;;5116233;28;19945;-73
2021/09/14 09:19:49;;;;;;;;;;;;;;;;;;5116396;28;20423;-72
2021/09/14 09:22:15;;;;;;;;;;;;;;;;;;5116124;28;19930;-73
2021/09/14 09:24:41;;;;;;;;;;;;;;;;;;5116315;28;19930;-73
2021/09/14 09:27:08;;;;;;;;;;;;;;;;;;5115533;28;20279;-73
2021/09/14 09:29:34;;;;;;;;;;;;;;;;;;5115674;28;19923;-73
2021/09/14 09:32:03;;;;;;;;;;;;;;;;;;5116205;28;19930;-72
2021/09/14 09:34:29;;;;;;;;;;;;;;;;;;5115912;28;19931;-72
2021/09/14 09:36:55;;;;;;;;;;;;;;;;;;5115932;28;19927;-72
2021/09/14 09:39:22;;;;;;;;;;;;;;;;;;5115609;28;20412;-72
2021/09/14 09:41:48;;;;;;;;;;;;;;;;;;5116081;28;19927;-72
2021/09/14 09:44:14;;;;;;;;;;;;;;;;;;5115607;28;19923;-73
2021/09/14 09:46:41;;;;;;;;;;;;;;;;;;5116103;28;20287;-72
2021/09/14 09:49:07;;;;;;;;;;;;;;;;;;5115492;28;19923;-72
2021/09/14 09:51:33;;;;;;;;;;;;;;;;;;5114636;28;19978;-72
2021/09/14 09:53:59;;;;;;;;;;;;;;;;;;5115744;28;19930;-72
2021/09/14 09:56:26;;;;;;;;;;;;;;;;;;5115522;28;19923;-73
2021/09/14 09:58:52;;;;;;;;;;;;;;;;;;5115239;28;19930;-73
2021/09/14 10:01:19;;;;;;;;;;;;;;;;;;5115096;28;19970;-72
2021/09/14 10:03:46;;;;;;;;;;;;;;;;;;5115335;28;20026;-73
2021/09/14 10:06:12;;;;;;;;;;;;;;;;;;5114998;28;19927;-72
2021/09/14 10:08:38;;;;;;;;;;;;;;;;;;5115249;28;19928;-72
2021/09/14 10:11:05;;;;;;;;;;;;;;;;;;5114758;28;20293;-72
2021/09/14 10:13:31;;;;;;;;;;;;;;;;;;5114838;28;19942;-72
2021/09/14 10:15:57;;;;;;;;;;;;;;;;;;5115499;28;19930;-72
2021/09/14 10:18:24;;;;;;;;;;;;;;;;;;5114693;28;20487;-73
2021/09/14 10:20:50;;;;;;;;;;;;;;;;;;5114896;28;19924;-72
2021/09/14 10:23:16;;;;;;;;;;;;;;;;;;5115068;28;20074;-73
2021/09/14 10:25:45;;;;;;;;;;;;;;;;;;5114686;28;19931;-73
2021/09/14 10:28:11;;;;;;;;;;;;;;;;;;5114705;28;19928;-73
2021/09/14 10:30:38;;;;;;;;;;;;;;;;;;5114603;28;20301;-73
2021/09/14 10:33:05;;;;;;;;;;;;;;;;;;5114712;28;19924;-73
2021/09/14 10:35:31;;;;;;;;;;;;;;;;;;5114413;28;20393;-73
2021/09/14 10:37:58;;;;;;;;;;;;;;;;;;5114996;28;19924;-73
2021/09/14 10:40:24;;;;;;;;;;;;;;;;;;5114274;28;20285;-73
2021/09/14 10:42:50;;;;;;;;;;;;;;;;;;5114710;28;19924;-73
2021/09/14 10:45:17;;;;;;;;;;;;;;;;;;5114505;28;20294;-73
2021/09/14 10:47:45;;;;;;;;;;;;;;;;;;5114639;28;19935;-73
2021/09/14 10:50:11;;;;;;;;;;;;;;;;;;5114347;28;19931;-73
2021/09/14 10:52:38;;;;;;;;;;;;;;;;;;5114538;28;19953;-71
2021/09/14 10:55:04;;;;;;;;;;;;;;;;;;5114288;28;20378;-72
2021/09/14 10:57:30;;;;;;;;;;;;;;;;;;5114000;28;19924;-72
2021/09/14 10:59:57;;;;;;;;;;;;;;;;;;5114086;28;19924;-72
2021/09/14 11:02:23;;;;;;;;;;;;;;;;;;5113124;28;20374;-72
2021/09/14 11:04:49;;;;;;;;;;;;;;;;;;5114366;28;19928;-72
2021/09/14 11:07:20;;;;;;;;;;;;;;;;;;5114005;28;19924;-72
2021/09/14 11:09:46;;;;;;;;;;;;;;;;;;5114071;28;20354;-72
2021/09/14 11:12:12;;;;;;;;;;;;;;;;;;5113909;28;19923;-72
2021/09/14 11:14:39;;;;;;;;;;;;;;;;;;5113740;28;20417;-72
2021/09/14 11:17:05;;;;;;;;;;;;;;;;;;5113809;28;19923;-72
2021/09/14 11:19:31;;;;;;;;;;;;;;;;;;5113910;28;19928;-71
2021/09/14 11:21:58;;;;;;;;;;;;;;;;;;5113666;28;19931;-72
2021/09/14 11:24:31;;;;;;;;;;;;;;;;;;5110113;27;19947;-73
2021/09/14 11:26:57;;;;;;;;;;;;;;;;;;5110829;27;19924;-73
2021/09/14 11:29:24;;;;;;;;;;;;;;;;;;5116241;28;19931;-73
2021/09/14 11:31:50;;;;;;;;;;;;;;;;;;5110399;28;19931;-74
2021/09/14 11:34:20;;;;;;;;;;;;;;;;;;5109797;28;19924;-73
2021/09/14 11:36:46;;;;;;;;;;;;;;;;;;5110281;28;19931;-71
2021/09/14 11:39:13;;;;;;;;;;;;;;;;;;5109432;28;20270;-72
2021/09/14 11:41:39;;;;;;;;;;;;;;;;;;5110180;28;19938;-74
2021/09/14 11:44:05;;;;;;;;;;;;;;;;;;5110185;28;19946;-72
2021/09/14 11:46:32;;;;;;;;;;;;;;;;;;5109960;28;19963;-72
2021/09/14 11:48:58;;;;;;;;;;;;;;;;;;5109874;28;19924;-72
2021/09/14 11:51:25;;;;;;;;;;;;;;;;;;5109804;28;19924;-72
2021/09/14 11:53:51;;;;;;;;;;;;;;;;;;5110003;28;20319;-72
2021/09/14 11:56:17;;;;;;;;;;;;;;;;;;5109538;28;19924;-73
2021/09/14 11:58:44;;;;;;;;;;;;;;;;;;5109688;28;19924;-72
2021/09/14 12:01:10;;;;;;;;;;;;;;;;;;5109959;28;19931;-72
2021/09/14 12:03:37;;;;;;;;;;;;;;;;;;5109518;28;20416;-72
2021/09/14 12:06:03;;;;;;;;;;;;;;;;;;5109413;28;20333;-72
2021/09/14 12:08:30;;;;;;;;;;;;;;;;;;5109447;27;19931;-72
2021/09/14 12:10:56;;;;;;;;;;;;;;;;;;5109463;28;19924;-72
2021/09/14 12:13:22;;;;;;;;;;;;;;;;;;5109379;28;20341;-72
2021/09/14 12:15:49;;;;;;;;;;;;;;;;;;5109407;28;19924;-73
2021/09/14 12:18:16;;;;;;;;;;;;;;;;;;5109406;28;19924;-72
2021/09/14 12:20:42;;;;;;;;;;;;;;;;;;5109548;28;19932;-72
2021/09/14 12:23:08;;;;;;;;;;;;;;;;;;5118008;28;20313;-73
2021/09/14 12:25:35;;;;;;;;;;;;;;;;;;5129407;28;19923;-73
2021/09/14 12:28:01;;;;;;;;;;;;;;;;;;5129687;28;19924;-73
2021/09/14 12:30:27;;;;;;;;;;;;;;;;;;5129784;28;19924;-73
2021/09/14 12:32:54;;;;;;;;;;;;;;;;;;5129552;28;20305;-72
2021/09/14 12:35:20;;;;;;;;;;;;;;;;;;5118551;27;19927;-73
2021/09/14 12:37:46;;;;;;;;;;;;;;;;;;5116112;28;19923;-73
2021/09/14 12:40:13;;;;;;;;;;;;;;;;;;5115357;28;20263;-72
2021/09/14 12:42:39;;;;;;;;;;;;;;;;;;5115496;28;19930;-72
2021/09/14 12:45:05;;;;;;;;;;;;;;;;;;5115922;28;19924;-73
2021/09/14 12:47:31;;;;;;;;;;;;;;;;;;5115886;28;19927;-72
2021/09/14 12:49:58;;;;;;;;;;;;;;;;;;5115545;28;19924;-72
2021/09/14 12:52:25;;;;;;;;;;;;;;;;;;5115548;28;19928;-72
2021/09/14 12:54:51;;;;;;;;;;;;;;;;;;5115636;28;19924;-72
2021/09/14 12:57:18;;;;;;;;;;;;;;;;;;5115184;28;19930;-73
2021/09/14 12:59:44;;;;;;;;;;;;;;;;;;5115510;28;19928;-72
2021/09/14 13:02:10;;;;;;;;;;;;;;;;;;5115525;28;19930;-72
2021/09/14 13:04:36;;;;;;;;;;;;;;;;;;5115088;28;19931;-72
2021/09/14 13:07:03;;;;;;;;;;;;;;;;;;5115350;28;19923;-72
2021/09/14 13:09:29;;;;;;;;;;;;;;;;;;5114901;28;20404;-73
2021/09/14 13:11:55;;;;;;;;;;;;;;;;;;5115665;28;19931;-73
2021/09/14 13:17:06;;;;;;;;;;;;;;;;;;5115096;28;19919;-72
2021/09/14 13:19:32;;;;;;;;;;;;;;;;;;5115010;28;19930;-73
2021/09/14 13:21:58;;;;;;;;;;;;;;;;;;5114809;28;20381;-73
2021/09/14 13:24:25;;;;;;;;;;;;;;;;;;5114591;28;19928;-72
2021/09/14 13:26:51;;;;;;;;;;;;;;;;;;5115032;28;19924;-72
2021/09/14 13:29:17;;;;;;;;;;;;;;;;;;5114567;28;20285;-72
2021/09/14 13:31:43;;;;;;;;;;;;;;;;;;5114707;28;19931;-71
2021/09/14 13:34:10;;;;;;;;;;;;;;;;;;5114883;28;19930;-72
2021/09/14 13:36:36;;;;;;;;;;;;;;;;;;5114733;28;20014;-72
2021/09/14 13:39:02;;;;;;;;;;;;;;;;;;5114421;28;19931;-72
2021/09/14 13:41:33;;;;;;;;;;;;;;;;;;5114209;28;19930;-72
2021/09/14 13:46:10;;;;;;;;;;;;;;;;;;5114329;28;19931;-72
2021/09/14 13:46:45;;;;;;;;;;;;;;;;;;5113234;28;19977;-75
2021/09/14 13:49:11;;;;;;;;;;;;;;;;;;5114616;28;19920;-73
2021/09/14 13:51:38;;;;;;;;;;;;;;;;;;5114608;28;20379;-73
2021/09/14 13:54:04;;;;;;;;;;;;;;;;;;5114420;28;19928;-72
2021/09/14 13:56:30;;;;;;;;;;;;;;;;;;5113972;28;19930;-73
2021/09/14 13:58:57;;;;;;;;;;;;;;;;;;5114254;28;19930;-73
2021/09/14 14:01:24;;;;;;;;;;;;;;;;;;5113685;28;20398;-73
2021/09/14 14:03:50;;;;;;;;;;;;;;;;;;5113952;28;19928;-73
2021/09/14 14:06:16;;;;;;;;;;;;;;;;;;5113648;28;20269;-73
2021/09/14 14:08:43;;;;;;;;;;;;;;;;;;5113933;28;19924;-74
2021/09/14 14:11:09;;;;;;;;;;;;;;;;;;5114237;28;19924;-74
2021/09/14 14:13:35;;;;;;;;;;;;;;;;;;5113974;28;19928;-73
2021/09/14 14:16:02;;;;;;;;;;;;;;;;;;5113699;28;20386;-73
2021/09/14 14:18:30;;;;;;;;;;;;;;;;;;5113628;28;19923;-73
2021/09/14 14:20:56;;;;;;;;;;;;;;;;;;5113800;28;20526;-73
2021/09/14 14:23:23;;;;;;;;;;;;;;;;;;5113169;28;19931;-74
2021/09/14 14:25:49;;;;;;;;;;;;;;;;;;5114019;28;19923;-73
2021/09/14 14:28:15;;;;;;;;;;;;;;;;;;5113231;28;20296;-73
2021/09/14 14:30:42;;;;;;;;;;;;;;;;;;5113453;28;19924;-76
2021/09/14 14:33:08;;;;;;;;;;;;;;;;;;5113793;28;19924;-77
2021/09/14 14:35:34;;;;;;;;;;;;;;;;;;5113450;28;19923;-78
2021/09/14 14:38:01;;;;;;;;;;;;;;;;;;5113430;28;20521;-74
2021/09/14 14:40:27;;;;;;;;;;;;;;;;;;5113477;28;19930;-74
2021/09/14 14:42:53;;;;;;;;;;;;;;;;;;5113469;28;19924;-72
2021/09/14 14:45:19;;;;;;;;;;;;;;;;;;5113038;28;20374;-74
2021/09/14 14:47:48;;;;;;;;;;;;;;;;;;5113460;28;19927;-77
2021/09/14 14:50:15;;;;;;;;;;;;;;;;;;5113086;28;20302;-76
2021/09/14 14:52:41;;;;;;;;;;;;;;;;;;5113138;28;19935;-74
2021/09/14 14:55:07;;;;;;;;;;;;;;;;;;5113384;28;19924;-74
2021/09/14 14:57:34;;;;;;;;;;;;;;;;;;5112682;28;19924;-73
2021/09/14 15:00:00;;;;;;;;;;;;;;;;;;5113110;28;19924;-74
2021/09/14 15:02:26;;;;;;;;;;;;;;;;;;5113057;28;19928;-73
2021/09/14 15:04:52;;;;;;;;;;;;;;;;;;5112878;28;19924;-73
2021/09/14 15:07:19;;;;;;;;;;;;;;;;;;5113105;28;19923;-74
2021/09/14 15:09:45;;;;;;;;;;;;;;;;;;5112978;28;20313;-74
2021/09/14 15:12:11;;;;;;;;;;;;;;;;;;5112731;28;19923;-76
2021/09/14 15:14:38;;;;;;;;;;;;;;;;;;5113217;28;19931;-73
2021/09/14 15:17:04;;;;;;;;;;;;;;;;;;5112828;28;20394;-73
2021/09/14 15:19:30;;;;;;;;;;;;;;;;;;5112958;28;19923;-73
2021/09/14 15:21:56;;;;;;;;;;;;;;;;;;5113192;28;19928;-74
2021/09/14 15:24:23;;;;;;;;;;;;;;;;;;5112342;28;20433;-73
2021/09/14 15:26:50;;;;;;;;;;;;;;;;;;5112709;28;19930;-74
2021/09/14 15:29:16;;;;;;;;;;;;;;;;;;5112819;28;19927;-75
2021/09/14 15:31:43;;;;;;;;;;;;;;;;;;5112838;28;19924;-72
2021/09/14 15:34:09;;;;;;;;;;;;;;;;;;5113067;28;19924;-73
2021/09/14 15:36:35;;;;;;;;;;;;;;;;;;5112482;28;20270;-73
2021/09/14 15:39:01;;;;;;;;;;;;;;;;;;5112667;28;19924;-73
2021/09/14 15:41:29;;;;;;;;;;;;;;;;;;5112621;28;19924;-73
2021/09/14 15:43:55;;;;;;;;;;;;;;;;;;5112604;28;20408;-73
2021/09/14 15:46:22;;;;;;;;;;;;;;;;;;5112359;28;19930;-73
2021/09/14 15:48:49;;;;;;;;;;;;;;;;;;5112942;28;20023;-72
2021/09/14 15:51:15;;;;;;;;;;;;;;;;;;5112365;28;20416;-77
2021/09/14 15:53:41;;;;;;;;;;;;;;;;;;5112547;28;19924;-76
2021/09/14 15:56:08;;;;;;;;;;;;;;;;;;5112679;28;19935;-75
2021/09/14 15:58:34;;;;;;;;;;;;;;;;;;5112310;28;20289;-74
2021/09/14 16:01:01;;;;;;;;;;;;;;;;;;5112468;28;19923;-77
2021/09/14 16:03:27;;;;;;;;;;;;;;;;;;5112372;28;19924;-74
2021/09/14 16:05:55;;;;;;;;;;;;;;;;;;5112418;28;20286;-73
2021/09/14 16:08:21;;;;;;;;;;;;;;;;;;5112414;28;19934;-73
2021/09/14 16:10:47;;;;;;;;;;;;;;;;;;5115251;28;19924;-73
2021/09/14 16:13:14;;;;;;;;;;;;;;;;;;5116374;28;19939;-73
2021/09/14 16:15:40;;;;;;;;;;;;;;;;;;5116199;28;20301;-74
2021/09/14 16:18:06;;;;;;;;;;;;;;;;;;5116108;28;19935;-73
2021/09/14 16:20:32;;;;;;;;;;;;;;;;;;5116127;28;19930;-74
2021/09/14 16:22:59;;;;;;;;;;;;;;;;;;5115793;28;20301;-74
2021/09/14 16:25:26;;;;;;;;;;;;;;;;;;5115712;28;19923;-74
2021/09/14 16:27:52;;;;;;;;;;;;;;;;;;5116346;28;19924;-74
2021/09/14 16:30:19;;;;;;;;;;;;;;;;;;5115693;28;20426;-73
2021/09/14 16:32:45;;;;;;;;;;;;;;;;;;5115906;28;19923;-73
2021/09/14 16:35:11;;;;;;;;;;;;;;;;;;5115837;28;19924;-73
2021/09/14 16:37:37;;;;;;;;;;;;;;;;;;5116146;28;20290;-73
2021/09/14 16:40:04;;;;;;;;;;;;;;;;;;5115707;28;19923;-73
2021/09/14 16:42:30;;;;;;;;;;;;;;;;;;5115816;28;19924;-73
2021/09/14 16:44:56;;;;;;;;;;;;;;;;;;5115868;28;19927;-73
2021/09/14 16:47:23;;;;;;;;;;;;;;;;;;5115392;28;19924;-73
2021/09/14 16:49:49;;;;;;;;;;;;;;;;;;5115582;28;19923;-74
2021/09/14 16:52:15;;;;;;;;;;;;;;;;;;5115642;28;19923;-74
2021/09/14 16:54:42;;;;;;;;;;;;;;;;;;5115361;28;19924;-73
2021/09/14 16:57:08;;;;;;;;;;;;;;;;;;5115755;28;19931;-73
2021/09/14 16:59:34;;;;;;;;;;;;;;;;;;5115490;28;19924;-74
2021/09/14 17:02:01;;;;;;;;;;;;;;;;;;5115288;28;20540;-73
2021/09/14 17:04:27;;;;;;;;;;;;;;;;;;5114986;28;19935;-73
2021/09/14 17:06:53;;;;;;;;;;;;;;;;;;5115416;28;19924;-75
2021/09/14 17:09:20;;;;;;;;;;;;;;;;;;5114827;28;20030;-73
2021/09/14 17:11:46;;;;;;;;;;;;;;;;;;5115464;28;19923;-74
2021/09/14 17:14:12;;;;;;;;;;;;;;;;;;5114919;28;20396;-74
2021/09/14 17:16:39;;;;;;;;;;;;;;;;;;5115632;28;19924;-74
2021/09/14 17:19:05;;;;;;;;;;;;;;;;;;5115864;28;19930;-73
2021/09/14 17:21:32;;;;;;;;;;;;;;;;;;5115222;28;19928;-73
2021/09/14 17:23:59;;;;;;;;;;;;;;;;;;5114502;27;20382;-74
2021/09/14 17:26:25;;;;;;;;;;;;;;;;;;5114860;28;19924;-73
2021/09/14 17:28:51;;;;;;;;;;;;;;;;;;5114963;28;19924;-74
2021/09/14 17:31:17;;;;;;;;;;;;;;;;;;5114482;28;20378;-74
2021/09/14 17:33:44;;;;;;;;;;;;;;;;;;5115013;28;19924;-74